createdAt,value
2022-12-09T00:01:14.468Z,97440.56
2022-12-09T00:03:41.845Z,97443.16
2022-12-09T00:06:20.387Z,97447.00
2022-12-09T00:08:47.782Z,97441.28
2022-12-09T00:11:14.693Z,97434.34
2022-12-09T00:13:41.706Z,97419.75
2022-12-09T00:16:13.666Z,97421.63
2022-12-09T00:18:41.721Z,97418.97
2022-12-09T00:21:21.099Z,97415.28
2022-12-09T00:23:49.100Z,97417.50
2022-12-09T00:26:16.442Z,97417.84
2022-12-09T00:28:43.751Z,97413.16
2022-12-09T00:31:13.641Z,97411.72
2022-12-09T00:33:40.397Z,97416.81
2022-12-09T00:36:15.073Z,97418.69
2022-12-09T00:38:43.611Z,97410.91
2022-12-09T00:41:10.500Z,97408.25
2022-12-09T00:43:37.145Z,97399.50
2022-12-09T00:46:04.018Z,97395.88
2022-12-09T00:48:31.024Z,97390.78
2022-12-09T00:50:57.760Z,97389.06
2022-12-09T00:53:24.461Z,97381.34
2022-12-09T00:55:51.195Z,97385.41
2022-12-09T00:58:17.779Z,97369.41
2022-12-09T01:00:44.611Z,97374.34
2022-12-09T01:03:14.379Z,97372.50
2022-12-09T01:05:41.835Z,97372.94
2022-12-09T01:08:09.297Z,97368.22
2022-12-09T01:10:36.888Z,97375.31
2022-12-09T01:13:04.003Z,97370.44
2022-12-09T01:15:30.716Z,97359.38
2022-12-09T01:17:57.414Z,97352.84
2022-12-09T01:20:24.638Z,97356.53
2022-12-09T01:22:51.487Z,97360.34
2022-12-09T01:25:18.018Z,97361.59
2022-12-09T01:27:44.832Z,97362.41
2022-12-09T01:30:13.985Z,97358.91
2022-12-09T01:32:41.565Z,97356.25
2022-12-09T01:35:08.722Z,97353.66
2022-12-09T01:37:36.965Z,97348.34
2022-12-09T01:40:09.879Z,97355.44
2022-12-09T01:42:36.950Z,97349.78
2022-12-09T01:45:22.221Z,97351.81
2022-12-09T01:47:58.183Z,97342.25
2022-12-09T01:50:26.631Z,97348.34
2022-12-09T01:52:53.781Z,97341.63
2022-12-09T01:55:20.374Z,97337.59
2022-12-09T01:57:47.186Z,97332.28
2022-12-09T02:00:14.486Z,97331.69
2022-12-09T02:02:45.446Z,97327.00
2022-12-09T02:05:12.270Z,97328.19
2022-12-09T02:07:38.819Z,97330.25
2022-12-09T02:10:12.770Z,97325.38
2022-12-09T02:13:24.169Z,97330.91
2022-12-09T02:15:55.824Z,97332.94
2022-12-09T02:18:45.526Z,97329.72
2022-12-09T02:21:19.074Z,97328.50
2022-12-09T02:23:50.538Z,97320.31
2022-12-09T02:26:47.883Z,97310.50
2022-12-09T02:29:29.568Z,97319.81
2022-12-09T02:32:32.405Z,97316.41
2022-12-09T02:35:08.026Z,97322.31
2022-12-09T02:37:43.948Z,97312.72
2022-12-09T02:40:21.249Z,97304.78
2022-12-09T02:42:49.280Z,97301.97
2022-12-09T02:45:18.133Z,97305.59
2022-12-09T02:47:49.718Z,97301.50
2022-12-09T02:50:21.107Z,97295.66
2022-12-09T02:52:49.649Z,97301.94
2022-12-09T02:55:18.522Z,97297.53
2022-12-09T02:57:45.232Z,97290.19
2022-12-09T03:00:14.928Z,97290.53
2022-12-09T03:02:47.831Z,97285.44
2022-12-09T03:05:27.272Z,97286.47
2022-12-09T03:08:51.443Z,97286.09
2022-12-09T03:11:20.696Z,97273.28
2022-12-09T03:14:03.713Z,97266.09
2022-12-09T03:16:35.014Z,97263.69
2022-12-09T03:19:08.790Z,97263.69
2022-12-09T03:21:40.849Z,97254.56
2022-12-09T03:24:10.929Z,97250.03
2022-12-09T03:26:38.900Z,97253.09
2022-12-09T03:29:12.134Z,97244.16
2022-12-09T03:31:39.879Z,97241.13
2022-12-09T03:34:09.743Z,97244.31
2022-12-09T03:36:39.768Z,97238.47
2022-12-09T03:39:09.928Z,97242.91
2022-12-09T03:41:38.534Z,97236.47
2022-12-09T03:44:12.651Z,97236.09
2022-12-09T03:46:39.489Z,97226.94
2022-12-09T03:49:06.402Z,97228.34
2022-12-09T03:51:58.778Z,97221.84
2022-12-09T03:54:43.369Z,97231.38
2022-12-09T03:57:18.455Z,97220.22
2022-12-09T03:59:52.767Z,97221.03
2022-12-09T04:02:20.086Z,97218.88
2022-12-09T04:04:46.942Z,97218.88
2022-12-09T04:07:13.570Z,97217.56
2022-12-09T04:09:40.486Z,97214.25
2022-12-09T04:12:07.618Z,97204.28
2022-12-09T04:14:34.477Z,97204.34
2022-12-09T04:17:01.260Z,97202.06
2022-12-09T04:19:28.356Z,97197.56
2022-12-09T04:21:54.925Z,97198.25
2022-12-09T04:24:21.480Z,97192.09
2022-12-09T04:26:48.182Z,97196.53
2022-12-09T04:29:14.791Z,97192.53
2022-12-09T04:31:41.493Z,97186.69
2022-12-09T04:34:09.847Z,97188.66
2022-12-09T04:36:37.369Z,97183.16
2022-12-09T04:39:04.757Z,97181.59
2022-12-09T04:41:31.301Z,97185.00
2022-12-09T04:43:57.823Z,97183.63
2022-12-09T04:46:24.667Z,97184.66
2022-12-09T04:48:51.499Z,97197.09
2022-12-09T04:51:18.271Z,97190.13
2022-12-09T04:53:45.219Z,97182.63
2022-12-09T04:56:19.099Z,97180.72
2022-12-09T04:58:46.513Z,97189.47
2022-12-09T05:01:17.752Z,97183.19
2022-12-09T05:03:49.241Z,97181.38
2022-12-09T05:06:16.352Z,97182.81
2022-12-09T05:08:43.928Z,97179.31
2022-12-09T05:11:11.361Z,97173.88
2022-12-09T05:13:38.149Z,97168.19
2022-12-09T05:16:13.824Z,97170.25
2022-12-09T05:18:42.608Z,97174.69
2022-12-09T05:21:13.090Z,97173.00
2022-12-09T05:23:39.648Z,97173.00
2022-12-09T05:26:10.006Z,97169.38
2022-12-09T05:28:37.297Z,97168.59
2022-12-09T05:31:07.762Z,97167.59
2022-12-09T05:33:35.024Z,97167.00
2022-12-09T05:36:01.898Z,97171.88
2022-12-09T05:38:30.542Z,97167.75
2022-12-09T05:41:00.607Z,97160.03
2022-12-09T05:43:27.213Z,97157.44
2022-12-09T05:45:54.093Z,97166.56
2022-12-09T05:48:21.067Z,97161.22
2022-12-09T05:51:16.777Z,97157.94
2022-12-09T05:53:43.390Z,97157.94
2022-12-09T05:56:10.063Z,97159.91
2022-12-09T05:58:36.849Z,97160.41
2022-12-09T06:01:07.987Z,97161.06
2022-12-09T06:03:35.498Z,97156.22
2022-12-09T06:06:11.599Z,97160.66
2022-12-09T06:08:39.263Z,97152.31
2022-12-09T06:11:11.912Z,97160.03
2022-12-09T06:13:38.850Z,97156.78
2022-12-09T06:16:07.112Z,97147.34
2022-12-09T06:18:34.614Z,97153.88
2022-12-09T06:21:06.294Z,97151.00
2022-12-09T06:23:38.026Z,97145.56
2022-12-09T06:26:05.058Z,97141.63
2022-12-09T06:28:31.969Z,97143.06
2022-12-09T06:30:58.781Z,97153.66
2022-12-09T06:33:52.878Z,97148.59
2022-12-09T06:36:12.649Z,97140.03
2022-12-09T06:38:39.428Z,97146.97
2022-12-09T06:41:13.759Z,97148.34
2022-12-09T06:43:41.424Z,97146.56
2022-12-09T06:46:17.011Z,97138.91
2022-12-09T06:48:44.634Z,97142.56
2022-12-09T06:51:12.100Z,97138.94
2022-12-09T06:53:38.731Z,97143.56
2022-12-09T06:56:11.859Z,97143.13
2022-12-09T06:58:41.333Z,97142.22
2022-12-09T07:01:15.634Z,97140.00
2022-12-09T07:03:44.894Z,97134.91
2022-12-09T07:06:31.100Z,97144.88
2022-12-09T07:09:01.061Z,97135.13
2022-12-09T07:11:28.669Z,97129.84
2022-12-09T07:13:55.683Z,97123.72
2022-12-09T07:16:22.746Z,97117.19
2022-12-09T07:18:49.604Z,97115.44
2022-12-09T07:21:18.776Z,97114.81
2022-12-09T07:23:45.568Z,97115.44
2022-12-09T07:26:12.500Z,97111.63
2022-12-09T07:28:42.659Z,97120.63
2022-12-09T07:31:18.732Z,97119.22
2022-12-09T07:33:46.108Z,97109.88
2022-12-09T07:36:17.621Z,97117.13
2022-12-09T07:38:47.599Z,97128.16
2022-12-09T07:41:18.591Z,97129.38
2022-12-09T07:43:46.304Z,97122.97
2022-12-09T07:46:14.380Z,97128.56
2022-12-09T07:48:41.655Z,97130.00
2022-12-09T07:51:08.566Z,97128.16
2022-12-09T07:53:36.781Z,97131.03
2022-12-09T07:56:12.487Z,97125.81
2022-12-09T07:58:39.231Z,97133.34
2022-12-09T08:01:18.024Z,97133.31
2022-12-09T08:03:45.318Z,97127.84
2022-12-09T08:06:14.015Z,97132.22
2022-12-09T08:08:41.170Z,97125.75
2022-12-09T08:11:08.671Z,97126.47
2022-12-09T08:13:36.595Z,97125.84
2022-12-09T08:16:05.261Z,97133.41
2022-12-09T08:18:33.500Z,97134.03
2022-12-09T08:21:04.052Z,97127.63
2022-12-09T08:23:30.927Z,97125.78
2022-12-09T08:25:58.109Z,97131.78
2022-12-09T08:28:25.666Z,97123.28
2022-12-09T08:30:53.039Z,97120.03
2022-12-09T08:33:19.865Z,97120.31
2022-12-09T08:35:47.005Z,97113.84
2022-12-09T08:38:13.715Z,97116.69
2022-12-09T08:40:40.834Z,97119.34
2022-12-09T08:43:09.012Z,97130.78
2022-12-09T08:45:40.150Z,97123.41
2022-12-09T08:48:08.783Z,97128.13
2022-12-09T08:50:35.539Z,97137.25
2022-12-09T08:53:02.555Z,97125.63
2022-12-09T08:55:29.344Z,97124.00
2022-12-09T08:57:57.271Z,97124.00
2022-12-09T09:00:24.257Z,97126.38
2022-12-09T09:02:51.033Z,97125.47
2022-12-09T09:05:18.689Z,97125.63
2022-12-09T09:07:45.780Z,97136.81
2022-12-09T09:10:13.355Z,97144.56
2022-12-09T09:12:43.485Z,97141.91
2022-12-09T09:15:10.982Z,97126.16
2022-12-09T09:17:38.503Z,97139.38
2022-12-09T09:20:06.692Z,97131.69
2022-12-09T09:22:34.615Z,97138.88
2022-12-09T09:25:01.616Z,97136.09
2022-12-09T09:27:28.415Z,97134.47
2022-12-09T09:29:55.578Z,97148.00
2022-12-09T09:32:22.260Z,97140.19
2022-12-09T09:34:50.749Z,97145.81
2022-12-09T09:37:17.730Z,97142.38
2022-12-09T09:39:44.769Z,97135.66
2022-12-09T09:42:17.145Z,97136.09
2022-12-09T09:44:46.445Z,97133.28
2022-12-09T09:47:36.200Z,97121.66
2022-12-09T09:50:32.794Z,97133.59
2022-12-09T09:53:10.920Z,97126.69
2022-12-09T09:55:46.740Z,97122.56
2022-12-09T09:58:20.525Z,97121.22
2022-12-09T10:00:59.853Z,97114.91
2022-12-09T10:03:50.101Z,97120.38
2022-12-09T10:06:19.782Z,97108.53
2022-12-09T10:08:59.345Z,97104.81
2022-12-09T10:11:34.776Z,97103.44
2022-12-09T10:14:28.647Z,97093.72
2022-12-09T10:17:01.836Z,97095.72
2022-12-09T10:19:33.007Z,97096.53
2022-12-09T10:22:11.903Z,97086.84
2022-12-09T10:24:50.348Z,97088.28
2022-12-09T10:27:38.134Z,97087.72
2022-12-09T10:30:10.541Z,97077.25
2022-12-09T10:32:39.204Z,97078.28
2022-12-09T10:35:20.811Z,97079.31
2022-12-09T10:37:49.811Z,97069.09
2022-12-09T10:40:50.549Z,97065.31
2022-12-09T10:43:41.079Z,97059.75
2022-12-09T10:46:25.975Z,97062.09
2022-12-09T10:48:58.794Z,97062.69
2022-12-09T10:51:28.946Z,97060.19
2022-12-09T10:54:19.291Z,97064.00
2022-12-09T10:57:04.364Z,97060.25
2022-12-09T10:59:32.160Z,97051.34
2022-12-09T11:02:08.104Z,97054.41
2022-12-09T11:04:42.936Z,97046.75
2022-12-09T11:07:13.087Z,97060.69
2022-12-09T11:09:46.144Z,97050.19
2022-12-09T11:12:30.930Z,97040.31
2022-12-09T11:15:05.921Z,97047.94
2022-12-09T11:17:36.046Z,97049.06
2022-12-09T11:20:06.118Z,97044.97
2022-12-09T11:22:40.312Z,97047.94
2022-12-09T11:25:27.334Z,97043.56
2022-12-09T11:28:15.805Z,97044.03
2022-12-09T11:31:27.175Z,97037.22
2022-12-09T11:33:48.323Z,97040.94
2022-12-09T11:36:22.618Z,97037.34
2022-12-09T11:38:52.678Z,97035.09
2022-12-09T11:41:40.838Z,97036.00
2022-12-09T11:44:21.539Z,97029.41
2022-12-09T11:46:57.555Z,97029.59
2022-12-09T11:49:24.569Z,97039.50
2022-12-09T11:52:23.439Z,97033.03
2022-12-09T11:55:14.803Z,97039.44
2022-12-09T11:58:28.649Z,97043.69
2022-12-09T12:01:06.053Z,97040.91
2022-12-09T12:03:46.374Z,97038.84
2022-12-09T12:06:43.748Z,97043.94
2022-12-09T12:09:22.664Z,97042.34
2022-12-09T12:12:04.748Z,97048.09
2022-12-09T12:14:32.499Z,97046.94
2022-12-09T12:17:31.813Z,97037.13
2022-12-09T12:19:58.411Z,97035.22
2022-12-09T12:23:05.459Z,97030.50
2022-12-09T12:25:43.911Z,97039.56
2022-12-09T12:28:13.342Z,97040.22
2022-12-09T12:30:44.830Z,97044.06
2022-12-09T12:34:00.869Z,97040.81
2022-12-09T12:36:55.937Z,97034.19
2022-12-09T12:39:22.388Z,97039.13
2022-12-09T12:42:23.444Z,97039.13
2022-12-09T12:45:20.427Z,97033.03
2022-12-09T12:48:15.845Z,97039.84
2022-12-09T12:51:02.797Z,97037.88
2022-12-09T12:53:59.756Z,97032.66
2022-12-09T12:57:12.880Z,97042.34
2022-12-09T13:00:08.951Z,97045.22
2022-12-09T13:02:59.288Z,97033.84
2022-12-09T13:05:33.832Z,97045.94
2022-12-09T13:08:07.288Z,97039.69
2022-12-09T13:10:47.810Z,97047.09
2022-12-09T13:13:37.171Z,97045.88
2022-12-09T13:16:19.409Z,97055.53
2022-12-09T13:18:48.913Z,97062.91
2022-12-09T13:21:16.535Z,97060.03
2022-12-09T13:24:19.643Z,97048.41
2022-12-09T13:27:01.101Z,97054.78
2022-12-09T13:29:36.761Z,97046.94
2022-12-09T13:32:29.473Z,97050.19
2022-12-09T13:35:04.593Z,97052.97
2022-12-09T13:37:54.827Z,97057.06
2022-12-09T13:40:21.261Z,97060.28
2022-12-09T13:42:58.252Z,97062.66
2022-12-09T13:45:44.749Z,97057.22
2022-12-09T13:48:16.590Z,97059.13
2022-12-09T13:50:57.104Z,97065.63
2022-12-09T13:53:29.795Z,97066.06
2022-12-09T13:56:08.235Z,97064.38
2022-12-09T13:59:02.303Z,97070.94
2022-12-09T14:01:37.729Z,97080.28
2022-12-09T14:04:25.600Z,97079.00
2022-12-09T14:07:09.872Z,97076.50
2022-12-09T14:09:48.251Z,97081.22
2022-12-09T14:12:27.019Z,97082.31
2022-12-09T14:14:54.274Z,97078.94
2022-12-09T14:17:23.710Z,97081.53
2022-12-09T14:20:03.748Z,97073.16
2022-12-09T14:22:35.331Z,97081.56
2022-12-09T14:25:27.446Z,97078.78
2022-12-09T14:28:24.737Z,97083.81
2022-12-09T14:31:03.380Z,97084.03
2022-12-09T14:33:37.163Z,97077.75
2022-12-09T14:36:06.753Z,97083.56
2022-12-09T14:42:23.097Z,97089.03
2022-12-09T14:45:09.102Z,97102.34
2022-12-09T14:47:43.193Z,97098.31
2022-12-09T14:50:16.816Z,97107.78
2022-12-09T14:52:58.670Z,97102.63
2022-12-09T14:55:27.295Z,97101.06
2022-12-09T14:57:57.342Z,97101.81
2022-12-09T15:00:37.247Z,97106.81
2022-12-09T15:03:44.780Z,97106.97
2022-12-09T15:06:16.492Z,97109.97
2022-12-09T15:08:43.103Z,97114.75
2022-12-09T15:11:16.052Z,97117.06
2022-12-09T15:13:46.874Z,97110.34
2022-12-09T15:16:16.757Z,97122.28
2022-12-09T15:18:45.633Z,97121.81
2022-12-09T15:21:31.079Z,97123.47
2022-12-09T15:23:59.409Z,97125.16
2022-12-09T15:26:29.317Z,97134.19
2022-12-09T15:28:59.348Z,97137.88
2022-12-09T15:31:28.569Z,97129.78
2022-12-09T15:34:00.125Z,97133.97
2022-12-09T15:36:34.499Z,97132.44
2022-12-09T15:39:12.020Z,97134.63
2022-12-09T15:42:03.397Z,97135.22
2022-12-09T15:44:36.230Z,97135.31
2022-12-09T15:47:10.313Z,97135.66
2022-12-09T15:49:46.142Z,97142.22
2022-12-09T15:52:14.774Z,97153.47
2022-12-09T15:54:44.137Z,97147.88
2022-12-09T15:57:16.067Z,97157.91
2022-12-09T15:59:50.945Z,97167.22
2022-12-09T16:02:25.480Z,97162.16
2022-12-09T16:04:55.052Z,97168.34
2022-12-09T16:07:23.105Z,97163.03
2022-12-09T16:10:08.810Z,97162.44
2022-12-09T16:12:36.469Z,97158.34
2022-12-09T16:15:05.764Z,97155.69
2022-12-09T16:17:36.953Z,97169.16
2022-12-09T16:20:28.641Z,97168.72
2022-12-09T16:22:55.130Z,97167.91
2022-12-09T16:25:27.202Z,97168.34
2022-12-09T16:28:03.178Z,97178.59
2022-12-09T16:30:32.530Z,97177.44
2022-12-09T16:33:01.368Z,97174.81
2022-12-09T16:35:40.207Z,97168.34
2022-12-09T16:38:09.641Z,97175.47
2022-12-09T16:40:58.425Z,97173.47
2022-12-09T16:43:26.251Z,97175.50
2022-12-09T16:45:55.645Z,97167.00
2022-12-09T16:48:23.715Z,97171.94
2022-12-09T16:51:17.606Z,97178.84
2022-12-09T16:53:50.008Z,97169.41
2022-12-09T16:56:22.458Z,97169.03
2022-12-09T16:58:49.078Z,97162.94
2022-12-09T17:01:18.023Z,97173.97
2022-12-09T17:03:49.937Z,97168.50
2022-12-09T17:06:18.411Z,97174.03
2022-12-09T17:08:45.283Z,97175.66
2022-12-09T17:11:12.179Z,97174.41
2022-12-09T17:13:39.308Z,97170.34
2022-12-09T17:16:06.971Z,97172.38
2022-12-09T17:18:33.990Z,97173.09
2022-12-09T17:21:04.559Z,97182.50
2022-12-09T17:23:37.727Z,97168.31
2022-12-09T17:26:08.721Z,97171.75
2022-12-09T17:28:35.767Z,97172.94
2022-12-09T17:31:06.403Z,97173.47
2022-12-09T17:33:32.832Z,97173.50
2022-12-09T17:35:59.658Z,97188.75
2022-12-09T17:38:29.442Z,97182.00
2022-12-09T17:40:57.300Z,97188.72
2022-12-09T17:43:23.817Z,97188.56
2022-12-09T17:45:50.275Z,97194.72
2022-12-09T17:48:16.850Z,97193.91
2022-12-09T17:50:43.334Z,97200.38
2022-12-09T17:53:09.821Z,97200.06
2022-12-09T17:55:39.049Z,97193.09
2022-12-09T17:58:05.686Z,97203.47
2022-12-09T18:00:33.705Z,97205.31
2022-12-09T18:03:00.666Z,97207.59
2022-12-09T18:05:27.107Z,97207.78
2022-12-09T18:07:53.667Z,97209.81
2022-12-09T18:10:20.250Z,97212.06
2022-12-09T18:12:46.723Z,97204.56
2022-12-09T18:15:13.626Z,97202.13
2022-12-09T18:17:40.158Z,97201.41
2022-12-09T18:20:07.507Z,97212.22
2022-12-09T18:22:34.387Z,97217.13
2022-12-09T18:25:01.208Z,97223.31
2022-12-09T18:27:27.650Z,97216.84
2022-12-09T18:29:54.193Z,97230.22
2022-12-09T18:32:20.796Z,97223.38
2022-12-09T18:34:47.584Z,97218.13
2022-12-09T18:37:14.058Z,97221.53
2022-12-09T18:39:41.228Z,97211.53
2022-12-09T18:42:08.639Z,97217.25
2022-12-09T18:44:35.113Z,97221.34
2022-12-09T18:47:01.630Z,97222.13
2022-12-09T18:49:28.521Z,97218.88
2022-12-09T18:51:55.811Z,97225.63
2022-12-09T18:54:28.608Z,97238.00
2022-12-09T18:56:56.144Z,97231.84
2022-12-09T18:59:25.446Z,97239.94
2022-12-09T19:01:52.654Z,97244.44
2022-12-09T19:04:25.412Z,97238.66
2022-12-09T19:06:57.033Z,97244.00
2022-12-09T19:09:32.278Z,97253.16
2022-12-09T19:12:16.575Z,97249.47
2022-12-09T19:14:46.394Z,97252.13
2022-12-09T19:17:12.879Z,97253.34
2022-12-09T19:19:39.629Z,97260.66
2022-12-09T19:22:08.216Z,97252.47
2022-12-09T19:24:38.452Z,97248.31
2022-12-09T19:27:07.877Z,97254.81
2022-12-09T19:29:34.621Z,97243.03
2022-12-09T19:32:01.212Z,97244.88
2022-12-09T19:34:29.733Z,97248.06
2022-12-09T19:36:58.821Z,97245.81
2022-12-09T19:39:31.367Z,97250.06
2022-12-09T19:41:59.149Z,97243.75
2022-12-09T19:44:52.347Z,97255.66
2022-12-09T19:47:13.563Z,97259.16
2022-12-09T19:49:42.104Z,97253.88
2022-12-09T19:52:08.678Z,97253.72
2022-12-09T19:54:35.154Z,97251.94
2022-12-09T19:57:01.641Z,97254.50
2022-12-09T19:59:28.524Z,97259.00
2022-12-09T20:01:55.602Z,97266.50
2022-12-09T20:07:10.555Z,97271.69
2022-12-09T20:09:37.463Z,97272.50
2022-12-09T20:12:04.236Z,97273.50
2022-12-09T20:14:30.681Z,97280.19
2022-12-09T20:16:57.085Z,97272.75
2022-12-09T20:19:24.667Z,97278.91
2022-12-09T20:21:51.107Z,97279.50
2022-12-09T20:24:17.533Z,97274.66
2022-12-09T20:26:44.841Z,97278.91
2022-12-09T20:29:11.767Z,97285.63
2022-12-09T20:31:39.277Z,97283.34
2022-12-09T20:34:13.035Z,97283.16
2022-12-09T20:36:41.710Z,97283.34
2022-12-09T20:39:14.897Z,97296.59
2022-12-09T20:41:42.376Z,97292.91
2022-12-09T20:44:10.102Z,97290.09
2022-12-09T20:46:38.279Z,97294.19
2022-12-09T20:49:04.763Z,97291.53
2022-12-09T20:51:34.346Z,97293.19
2022-12-09T20:54:01.151Z,97300.31
2022-12-09T20:56:29.768Z,97290.44
2022-12-09T20:58:57.325Z,97284.09
2022-12-09T21:01:27.847Z,97278.97
2022-12-09T21:03:55.732Z,97284.69
2022-12-09T21:06:24.886Z,97290.38
2022-12-09T21:08:53.491Z,97285.91
2022-12-09T21:11:22.254Z,97283.69
2022-12-09T21:13:54.281Z,97286.06
2022-12-09T21:16:25.398Z,97290.78
2022-12-09T21:18:57.913Z,97293.69
2022-12-09T21:21:26.614Z,97286.78
2022-12-09T21:23:54.592Z,97290.59
2022-12-09T21:26:23.804Z,97289.72
2022-12-09T21:28:52.015Z,97284.22
2022-12-09T21:31:19.999Z,97283.63
2022-12-09T21:33:48.277Z,97285.91
2022-12-09T21:36:21.746Z,97289.00
2022-12-09T21:38:48.300Z,97293.69
2022-12-09T21:41:17.779Z,97283.72
2022-12-09T21:43:45.269Z,97278.00
2022-12-09T21:46:15.399Z,97281.66
2022-12-09T21:48:42.172Z,97275.34
2022-12-09T21:51:10.931Z,97276.00
2022-12-09T21:53:37.646Z,97265.41
2022-12-09T21:56:11.131Z,97266.41
2022-12-09T21:58:37.669Z,97279.34
2022-12-09T22:01:13.411Z,97280.19
2022-12-09T22:03:40.215Z,97284.56
2022-12-09T22:06:07.467Z,97280.63
2022-12-09T22:08:35.212Z,97283.09
2022-12-09T22:11:06.880Z,97286.97
2022-12-09T22:13:39.040Z,97290.47
2022-12-09T22:16:08.239Z,97290.84
2022-12-09T22:18:34.932Z,97280.69
2022-12-09T22:23:54.730Z,97288.38
2022-12-09T22:26:22.037Z,97285.13
2022-12-09T22:28:49.057Z,97294.66
2022-12-09T22:31:17.607Z,97297.75
2022-12-09T22:33:45.076Z,97298.97
2022-12-09T22:36:12.959Z,97299.84
2022-12-09T22:38:41.261Z,97312.84
2022-12-09T22:41:14.342Z,97311.22
2022-12-09T22:43:41.940Z,97305.56
2022-12-09T22:46:30.163Z,97307.97
2022-12-09T22:48:59.749Z,97306.38
2022-12-09T22:51:28.947Z,97296.97
2022-12-09T22:53:56.770Z,97305.41
2022-12-09T22:56:24.013Z,97300.53
2022-12-09T22:58:50.863Z,97300.53
2022-12-09T23:01:23.477Z,97294.28
2022-12-09T23:03:50.050Z,97287.88
2022-12-09T23:06:16.543Z,97288.31
2022-12-09T23:08:44.721Z,97280.56
2022-12-09T23:11:14.085Z,97270.38
2022-12-09T23:13:41.408Z,97263.06
2022-12-09T23:16:11.740Z,97264.28
2022-12-09T23:18:38.429Z,97264.97
2022-12-09T23:21:13.086Z,97285.94
2022-12-09T23:23:40.324Z,97286.16
2022-12-09T23:26:09.442Z,97289.44
2022-12-09T23:28:44.300Z,97304.53
2022-12-09T23:31:13.552Z,97301.44
2022-12-09T23:33:42.093Z,97300.41
2022-12-09T23:36:16.111Z,97302.25
2022-12-09T23:38:43.044Z,97311.66
2022-12-09T23:41:11.467Z,97308.78
2022-12-09T23:43:38.871Z,97294.09
2022-12-09T23:46:14.455Z,97289.25
2022-12-09T23:48:42.777Z,97290.38
2022-12-09T23:51:13.672Z,97293.63
2022-12-09T23:53:41.875Z,97277.78
2022-12-09T23:56:11.271Z,97284.09
2022-12-09T23:58:38.018Z,97286.47
